createdAt,value
2018-12-17T00:00:04.120Z,3.10
2018-12-17T00:02:35.414Z,3.10
2018-12-17T00:05:06.292Z,3.20
2018-12-17T00:07:37.145Z,3.10
2018-12-17T00:10:06.480Z,3.10
2018-12-17T00:12:35.299Z,3.10
2018-12-17T00:15:06.261Z,3.10
2018-12-17T00:17:35.922Z,3.10
2018-12-17T00:20:05.329Z,3.10
2018-12-17T00:22:34.137Z,3.20
2018-12-17T00:25:03.034Z,3.20
2018-12-17T00:27:31.840Z,3.20
2018-12-17T00:30:00.692Z,3.20
2018-12-17T00:32:29.505Z,3.20
2018-12-17T00:34:58.317Z,3.20
2018-12-17T00:37:27.231Z,3.20
2018-12-17T00:39:57.066Z,3.20
2018-12-17T00:42:25.887Z,3.10
2018-12-17T00:44:54.719Z,3.10
2018-12-17T00:47:23.579Z,3.10
2018-12-17T00:49:52.443Z,3.10
2018-12-17T00:52:21.222Z,3.10
2018-12-17T00:54:50.013Z,3.10
2018-12-17T00:57:18.846Z,3.10
2018-12-17T00:59:47.649Z,3.20
2018-12-17T01:02:16.473Z,3.20
2018-12-17T01:04:45.330Z,3.20
2018-12-17T01:07:17.866Z,3.10
2018-12-17T01:09:46.658Z,3.10
2018-12-17T01:12:15.459Z,3.20
2018-12-17T01:14:44.341Z,3.20
2018-12-17T01:17:13.176Z,3.20
2018-12-17T01:19:41.971Z,3.20
2018-12-17T01:22:12.518Z,3.10
2018-12-17T01:24:41.324Z,3.10
2018-12-17T01:27:10.134Z,3.10
2018-12-17T01:29:38.922Z,3.20
2018-12-17T01:32:07.732Z,3.20
2018-12-17T01:34:36.536Z,3.20
2018-12-17T01:37:05.344Z,3.20
2018-12-17T01:39:34.227Z,3.30
2018-12-17T01:42:03.122Z,3.30
2018-12-17T01:44:31.964Z,3.30
2018-12-17T01:47:00.747Z,3.30
2018-12-17T01:49:29.559Z,3.30
2018-12-17T01:51:58.442Z,3.30
2018-12-17T01:54:27.317Z,3.30
2018-12-17T01:56:56.111Z,3.30
2018-12-17T01:59:24.919Z,3.30
2018-12-17T02:01:53.715Z,3.30
2018-12-17T02:04:22.600Z,3.30
2018-12-17T02:06:51.586Z,3.30
2018-12-17T02:09:20.489Z,3.30
2018-12-17T02:11:49.321Z,3.30
2018-12-17T02:14:18.115Z,3.30
2018-12-17T02:16:47.086Z,3.30
2018-12-17T02:19:15.963Z,3.30
2018-12-17T02:21:44.817Z,3.30
2018-12-17T02:24:13.618Z,3.30
2018-12-17T02:26:42.500Z,3.30
2018-12-17T02:29:11.308Z,3.20
2018-12-17T02:31:40.147Z,3.10
2018-12-17T02:34:10.617Z,3.00
2018-12-17T02:36:39.420Z,3.00
2018-12-17T02:39:08.617Z,2.90
2018-12-17T02:41:39.439Z,2.90
2018-12-17T02:44:08.428Z,3.00
2018-12-17T02:46:37.215Z,3.00
2018-12-17T02:49:06.086Z,3.10
2018-12-17T02:51:36.987Z,3.10
2018-12-17T02:54:06.621Z,3.10
2018-12-17T02:56:35.557Z,3.10
2018-12-17T02:59:05.285Z,3.10
2018-12-17T03:01:34.096Z,3.10
2018-12-17T03:04:02.885Z,3.10
2018-12-17T03:06:31.858Z,3.10
2018-12-17T03:09:00.724Z,3.10
2018-12-17T03:11:31.484Z,3.20
2018-12-17T03:14:00.326Z,3.20
2018-12-17T03:16:29.119Z,3.20
2018-12-17T03:18:57.948Z,3.20
2018-12-17T03:21:26.744Z,3.20
2018-12-17T03:23:55.552Z,3.10
2018-12-17T03:26:24.366Z,3.10
2018-12-17T03:28:53.217Z,3.10
2018-12-17T03:31:22.094Z,3.10
2018-12-17T03:33:50.882Z,3.10
2018-12-17T03:36:19.768Z,3.00
2018-12-17T03:38:48.580Z,3.00
2018-12-17T03:41:17.442Z,3.00
2018-12-17T03:43:46.254Z,3.00
2018-12-17T03:46:15.163Z,3.00
2018-12-17T03:48:43.976Z,3.00
2018-12-17T03:51:12.781Z,3.00
2018-12-17T03:53:41.595Z,3.00
2018-12-17T03:56:10.454Z,3.00
2018-12-17T03:58:39.273Z,3.10
2018-12-17T04:01:08.161Z,3.10
2018-12-17T04:03:37.013Z,3.10
2018-12-17T04:06:06.026Z,3.10
2018-12-17T04:08:34.818Z,3.20
2018-12-17T04:11:03.903Z,3.20
2018-12-17T04:13:32.820Z,3.10
2018-12-17T04:16:01.590Z,3.20
2018-12-17T04:18:31.322Z,3.20
2018-12-17T04:21:00.130Z,3.20
2018-12-17T04:23:30.219Z,3.20
2018-12-17T04:26:01.002Z,3.20
2018-12-17T04:28:29.846Z,3.20
2018-12-17T04:31:00.158Z,3.30
2018-12-17T04:33:29.037Z,3.30
2018-12-17T04:35:57.866Z,3.30
2018-12-17T04:38:26.749Z,3.30
2018-12-17T04:40:55.944Z,3.30
2018-12-17T04:43:24.840Z,3.30
2018-12-17T04:45:53.649Z,3.30
2018-12-17T04:48:22.488Z,3.20
2018-12-17T04:50:51.277Z,3.20
2018-12-17T04:53:20.122Z,3.20
2018-12-17T04:55:48.992Z,3.20
2018-12-17T04:58:17.816Z,3.30
2018-12-17T05:00:46.706Z,3.30
2018-12-17T05:03:15.511Z,3.30
2018-12-17T05:05:44.344Z,3.30
2018-12-17T05:08:13.693Z,3.30
2018-12-17T05:10:42.499Z,3.30
2018-12-17T05:13:11.300Z,3.30
2018-12-17T05:15:40.209Z,3.20
2018-12-17T05:18:09.044Z,3.20
2018-12-17T05:20:37.855Z,3.20
2018-12-17T05:23:06.737Z,3.20
2018-12-17T05:25:35.767Z,3.30
2018-12-17T05:28:04.589Z,3.30
2018-12-17T05:30:33.393Z,3.30
2018-12-17T05:33:02.993Z,3.30
2018-12-17T05:35:31.809Z,3.30
2018-12-17T05:38:02.663Z,3.30
2018-12-17T05:40:31.445Z,3.40
2018-12-17T05:43:00.268Z,3.40
2018-12-17T05:45:29.065Z,3.40
2018-12-17T05:47:57.902Z,3.40
2018-12-17T05:50:26.703Z,3.40
2018-12-17T05:52:55.526Z,3.40
2018-12-17T05:55:24.482Z,3.40
2018-12-17T05:57:53.644Z,3.40
2018-12-17T06:00:23.147Z,3.40
2018-12-17T06:02:51.985Z,3.40
2018-12-17T06:05:20.783Z,3.40
2018-12-17T06:07:49.655Z,3.40
2018-12-17T06:10:18.467Z,3.40
2018-12-17T06:12:47.339Z,3.40
2018-12-17T06:15:16.238Z,3.30
2018-12-17T06:17:45.012Z,3.30
2018-12-17T06:20:13.807Z,3.30
2018-12-17T06:22:42.651Z,3.40
2018-12-17T06:25:11.444Z,3.40
2018-12-17T06:27:40.554Z,3.40
2018-12-17T06:30:09.371Z,3.40
2018-12-17T06:32:38.314Z,3.40
2018-12-17T06:35:07.191Z,3.40
2018-12-17T06:37:36.005Z,3.40
2018-12-17T06:40:10.251Z,3.40
2018-12-17T06:49:20.140Z,3.40
2018-12-17T06:51:49.103Z,3.30
2018-12-17T06:54:18.255Z,3.30
2018-12-17T06:56:47.180Z,3.30
2018-12-17T06:59:16.030Z,3.30
2018-12-17T07:01:44.908Z,3.30
2018-12-17T07:04:13.712Z,3.40
2018-12-17T07:06:42.514Z,3.40
2018-12-17T07:09:11.312Z,3.40
2018-12-17T07:11:40.108Z,3.40
2018-12-17T07:14:08.915Z,3.40
2018-12-17T07:16:37.704Z,3.30
2018-12-17T07:19:06.500Z,3.30
2018-12-17T07:21:35.311Z,3.30
2018-12-17T07:24:04.258Z,3.30
2018-12-17T07:26:33.148Z,3.20
2018-12-17T07:29:02.073Z,3.30
2018-12-17T07:31:30.870Z,3.30
2018-12-17T07:33:59.700Z,3.30
2018-12-17T07:36:28.502Z,3.30
2018-12-17T07:38:57.567Z,3.40
2018-12-17T07:41:26.429Z,3.40
2018-12-17T07:43:55.326Z,3.40
2018-12-17T07:46:24.262Z,3.40
2018-12-17T07:48:53.080Z,3.50
2018-12-17T07:52:51.423Z,3.50
2018-12-17T07:55:20.213Z,3.60
2018-12-17T07:57:49.029Z,3.70
2018-12-17T08:00:18.035Z,3.80
2018-12-17T08:02:46.846Z,3.90
2018-12-17T08:05:15.750Z,3.90
2018-12-17T08:07:44.537Z,4.00
2018-12-17T08:10:13.412Z,4.10
2018-12-17T08:12:42.233Z,4.10
2018-12-17T08:15:11.173Z,4.10
2018-12-17T08:17:40.033Z,4.10
2018-12-17T08:20:09.018Z,4.10
2018-12-17T08:22:38.709Z,4.20
2018-12-17T08:25:09.759Z,4.20
2018-12-17T08:27:38.587Z,4.10
2018-12-17T08:30:08.095Z,4.10
2018-12-17T08:32:36.881Z,4.00
2018-12-17T08:35:05.777Z,4.10
2018-12-17T08:37:34.655Z,4.10
2018-12-17T08:40:04.031Z,4.10
2018-12-17T08:42:32.835Z,4.10
2018-12-17T08:45:01.669Z,4.00
2018-12-17T08:47:30.522Z,4.00
2018-12-17T08:49:59.415Z,4.00
2018-12-17T08:52:28.216Z,3.90
2018-12-17T08:54:57.214Z,3.80
2018-12-17T08:57:25.999Z,3.70
2018-12-17T08:59:54.932Z,3.70
2018-12-17T09:02:23.827Z,3.60
2018-12-17T09:04:52.707Z,3.60
2018-12-17T09:07:21.512Z,3.60
2018-12-17T09:09:50.372Z,3.70
2018-12-17T09:12:19.204Z,3.70
2018-12-17T09:14:48.028Z,3.70
2018-12-17T09:17:16.832Z,3.70
2018-12-17T09:19:45.829Z,3.70
2018-12-17T09:22:14.738Z,3.70
2018-12-17T09:24:43.540Z,3.70
2018-12-17T09:27:12.523Z,3.80
2018-12-17T09:29:41.300Z,3.90
2018-12-17T09:32:10.174Z,4.00
2018-12-17T09:34:38.994Z,4.10
2018-12-17T09:37:07.808Z,4.20
2018-12-17T09:39:36.791Z,4.20
2018-12-17T09:42:05.750Z,4.20
2018-12-17T09:44:34.680Z,4.30
2018-12-17T09:47:03.562Z,4.20
2018-12-17T09:49:33.340Z,4.20
2018-12-17T09:52:02.232Z,4.10
2018-12-17T09:54:31.032Z,4.00
2018-12-17T09:56:59.832Z,3.90
2018-12-17T09:59:28.648Z,3.90
2018-12-17T10:01:57.462Z,3.80
2018-12-17T10:04:26.290Z,3.80
2018-12-17T10:06:55.104Z,3.80
2018-12-17T10:09:23.926Z,3.80
2018-12-17T10:11:52.708Z,3.80
2018-12-17T10:14:21.528Z,3.80
2018-12-17T10:16:50.386Z,3.80
2018-12-17T10:19:19.194Z,3.90
2018-12-17T10:21:48.068Z,4.00
2018-12-17T10:24:17.594Z,4.00
2018-12-17T10:26:46.511Z,4.10
2018-12-17T10:29:15.348Z,4.10
2018-12-17T10:31:44.146Z,4.10
2018-12-17T10:34:12.936Z,4.20
2018-12-17T10:36:41.750Z,4.30
2018-12-17T10:39:10.608Z,4.40
2018-12-17T10:41:41.448Z,4.50
2018-12-17T10:44:12.286Z,4.50
2018-12-17T10:46:41.087Z,4.60
2018-12-17T10:49:10.043Z,4.60
2018-12-17T10:51:39.084Z,4.60
2018-12-17T10:54:07.892Z,4.70
2018-12-17T10:56:36.776Z,4.70
2018-12-17T10:59:06.747Z,4.70
2018-12-17T11:01:52.672Z,4.80
2018-12-17T11:04:26.804Z,4.80
2018-12-17T11:06:55.903Z,4.90
2018-12-17T11:09:24.745Z,4.90
2018-12-17T11:11:53.558Z,4.90
2018-12-17T11:14:22.436Z,4.80
2018-12-17T11:16:51.249Z,4.90
2018-12-17T11:19:20.068Z,5.00
2018-12-17T11:21:48.887Z,5.10
2018-12-17T11:24:17.704Z,5.20
2018-12-17T11:26:46.532Z,5.30
2018-12-17T11:29:15.343Z,5.50
2018-12-17T11:31:44.197Z,5.60
2018-12-17T11:34:13.084Z,5.70
2018-12-17T11:36:41.898Z,5.80
2018-12-17T11:39:10.935Z,5.70
2018-12-17T11:41:41.695Z,5.80
2018-12-17T11:44:10.572Z,5.90
2018-12-17T11:46:39.415Z,6.00
2018-12-17T11:49:08.225Z,6.10
2018-12-17T11:51:37.197Z,6.00
2018-12-17T11:54:06.095Z,6.00
2018-12-17T11:56:46.849Z,6.00
2018-12-17T11:59:15.673Z,6.00
2018-12-17T12:01:46.538Z,6.10
2018-12-17T12:04:15.351Z,6.00
2018-12-17T12:06:44.219Z,6.10
2018-12-17T12:09:14.997Z,6.20
2018-12-17T12:11:43.840Z,6.30
2018-12-17T12:14:12.651Z,6.30
2018-12-17T12:16:41.453Z,6.30
2018-12-17T12:19:10.457Z,6.30
2018-12-17T12:21:39.277Z,6.40
2018-12-17T12:24:09.771Z,6.40
2018-12-17T12:26:38.655Z,6.40
2018-12-17T12:29:07.449Z,6.30
2018-12-17T12:31:36.339Z,6.30
2018-12-17T12:34:05.201Z,6.30
2018-12-17T12:36:34.001Z,6.30
2018-12-17T12:39:02.855Z,6.20
2018-12-17T12:41:33.609Z,6.10
2018-12-17T12:44:08.708Z,6.10
2018-12-17T12:46:33.286Z,6.00
2018-12-17T12:49:02.767Z,6.00
2018-12-17T12:51:32.820Z,6.00
2018-12-17T12:54:01.954Z,6.00
2018-12-17T12:56:30.823Z,5.90
2018-12-17T12:58:59.688Z,5.80
2018-12-17T13:01:28.547Z,5.90
2018-12-17T13:03:57.423Z,5.90
2018-12-17T13:06:26.293Z,6.00
2018-12-17T13:08:55.193Z,5.90
2018-12-17T13:11:24.083Z,5.90
2018-12-17T13:13:52.938Z,5.80
2018-12-17T13:16:21.745Z,5.70
2018-12-17T13:18:50.616Z,5.60
2018-12-17T13:21:19.525Z,5.60
2018-12-17T13:23:48.328Z,5.70
2018-12-17T13:26:17.436Z,5.70
2018-12-17T13:28:46.220Z,5.80
2018-12-17T13:31:15.181Z,5.90
2018-12-17T13:33:43.998Z,6.00
2018-12-17T13:36:12.883Z,6.10
2018-12-17T13:38:43.436Z,6.20
2018-12-17T13:41:12.248Z,6.30
2018-12-17T13:43:41.134Z,6.40
2018-12-17T13:46:10.027Z,6.40
2018-12-17T13:48:39.142Z,6.40
2018-12-17T13:51:13.447Z,6.40
2018-12-17T13:53:42.276Z,6.30
2018-12-17T13:56:11.134Z,6.40
2018-12-17T13:58:40.000Z,6.40
2018-12-17T14:01:08.879Z,6.40
2018-12-17T14:03:37.685Z,6.40
2018-12-17T14:06:06.623Z,6.40
2018-12-17T14:08:35.445Z,6.40
2018-12-17T14:11:04.321Z,6.40
2018-12-17T14:13:33.227Z,6.40
2018-12-17T14:16:07.327Z,6.30
2018-12-17T14:18:41.659Z,6.30
2018-12-17T14:21:15.969Z,6.30
2018-12-17T14:23:44.780Z,6.30
2018-12-17T14:26:13.695Z,6.30
2018-12-17T14:28:42.540Z,6.30
2018-12-17T14:31:11.433Z,6.30
2018-12-17T14:33:41.813Z,6.30
2018-12-17T14:36:10.649Z,6.20
2018-12-17T14:38:39.881Z,6.30
2018-12-17T14:41:08.739Z,6.30
2018-12-17T14:43:37.545Z,6.30
2018-12-17T14:46:06.417Z,6.30
2018-12-17T14:48:35.279Z,6.40
2018-12-17T14:51:04.220Z,6.30
2018-12-17T14:53:33.032Z,6.40
2018-12-17T14:56:01.887Z,6.30
2018-12-17T14:58:30.719Z,6.40
2018-12-17T15:00:59.602Z,6.30
2018-12-17T15:03:28.412Z,6.40
2018-12-17T15:05:57.508Z,6.40
2018-12-17T15:08:26.262Z,6.40
2018-12-17T15:10:55.147Z,6.40
2018-12-17T15:13:23.996Z,6.40
2018-12-17T15:15:52.866Z,6.40
2018-12-17T15:18:21.734Z,6.40
2018-12-17T15:20:50.590Z,6.40
2018-12-17T15:23:19.502Z,6.30
2018-12-17T15:25:48.314Z,6.30
2018-12-17T15:28:17.183Z,6.30
2018-12-17T15:30:46.068Z,6.30
2018-12-17T15:33:15.023Z,6.20
2018-12-17T15:35:43.908Z,6.20
2018-12-17T15:38:12.727Z,6.10
2018-12-17T15:40:41.555Z,6.10
2018-12-17T15:43:10.330Z,6.10
2018-12-17T15:45:39.123Z,6.00
2018-12-17T15:48:07.961Z,6.00
2018-12-17T15:50:36.797Z,6.00
2018-12-17T15:53:05.665Z,5.90
2018-12-17T15:55:34.480Z,5.80
2018-12-17T15:58:03.286Z,5.70
2018-12-17T16:00:32.084Z,5.60
2018-12-17T16:03:01.037Z,5.60
2018-12-17T16:05:29.858Z,5.50
2018-12-17T16:07:58.750Z,5.40
2018-12-17T16:10:27.571Z,5.40
2018-12-17T16:12:56.440Z,5.40
2018-12-17T16:15:25.318Z,5.40
2018-12-17T16:17:54.118Z,5.40
2018-12-17T16:20:23.210Z,5.40
2018-12-17T16:22:52.096Z,5.40
2018-12-17T16:25:20.896Z,5.40
2018-12-17T16:27:50.572Z,5.40
2018-12-17T16:30:20.442Z,5.30
2018-12-17T16:32:49.300Z,5.30
2018-12-17T16:35:18.132Z,5.30
2018-12-17T16:37:46.924Z,5.20
2018-12-17T16:40:15.982Z,5.10
2018-12-17T16:42:44.836Z,5.00
2018-12-17T16:45:13.760Z,4.90
2018-12-17T16:47:42.682Z,4.80
2018-12-17T16:50:11.522Z,4.80
2018-12-17T16:52:40.358Z,4.80
2018-12-17T16:55:09.284Z,4.80
2018-12-17T16:57:38.164Z,4.80
2018-12-17T17:00:09.641Z,4.80
2018-12-17T17:02:39.926Z,4.90
2018-12-17T17:05:08.818Z,4.90
2018-12-17T17:07:37.751Z,5.00
2018-12-17T17:10:08.962Z,5.00
2018-12-17T17:12:37.962Z,5.10
2018-12-17T17:15:10.304Z,5.10
2018-12-17T17:17:39.450Z,5.10
2018-12-17T17:20:09.636Z,5.10
2018-12-17T17:22:38.518Z,5.10
2018-12-17T17:25:07.575Z,5.10
2018-12-17T17:27:36.434Z,5.10
2018-12-17T17:30:06.904Z,5.10
2018-12-17T17:32:35.738Z,5.20
2018-12-17T17:35:04.788Z,5.20
2018-12-17T17:37:33.727Z,5.30
2018-12-17T17:40:02.653Z,5.30
2018-12-17T17:42:31.451Z,5.40
2018-12-17T17:45:00.283Z,5.40
2018-12-17T17:47:29.091Z,5.40
2018-12-17T17:49:58.006Z,5.40
2018-12-17T17:52:26.843Z,5.30
2018-12-17T17:54:55.649Z,5.30
2018-12-17T17:57:24.521Z,5.10
2018-12-17T17:59:53.381Z,5.10
2018-12-17T18:02:22.233Z,5.00
2018-12-17T18:04:52.011Z,4.90
2018-12-17T18:07:20.819Z,5.00
2018-12-17T18:09:49.693Z,5.00
2018-12-17T18:12:18.619Z,5.00
2018-12-17T18:14:47.407Z,5.00
2018-12-17T18:17:16.251Z,5.00
2018-12-17T18:19:45.035Z,5.10
2018-12-17T18:22:13.881Z,5.20
2018-12-17T18:24:42.671Z,5.30
2018-12-17T18:27:11.533Z,5.40
2018-12-17T18:29:40.361Z,5.50
2018-12-17T18:32:09.203Z,5.50
2018-12-17T18:34:38.083Z,5.50
2018-12-17T18:37:06.991Z,5.50
2018-12-17T18:39:35.797Z,5.60
2018-12-17T18:42:04.695Z,5.60
2018-12-17T18:44:35.031Z,5.60
2018-12-17T18:47:04.009Z,5.50
2018-12-17T18:49:32.934Z,5.50
2018-12-17T18:52:01.749Z,5.50
2018-12-17T18:54:30.574Z,5.50
2018-12-17T18:56:59.369Z,5.50
2018-12-17T18:59:28.169Z,5.50
2018-12-17T19:01:56.997Z,5.40
2018-12-17T19:04:25.806Z,5.40
2018-12-17T19:06:54.626Z,5.40
2018-12-17T19:09:23.424Z,5.40
2018-12-17T19:11:52.249Z,5.30
2018-12-17T19:14:21.049Z,5.30
2018-12-17T19:16:49.926Z,5.40
2018-12-17T19:19:18.845Z,5.30
2018-12-17T19:21:47.699Z,5.30
2018-12-17T19:24:16.567Z,5.30
2018-12-17T19:26:45.375Z,5.30
2018-12-17T19:29:14.238Z,5.30
2018-12-17T19:31:43.132Z,5.30
2018-12-17T19:34:11.985Z,5.30
2018-12-17T19:36:40.956Z,5.30
2018-12-17T19:39:09.748Z,5.40
2018-12-17T19:41:40.576Z,5.40
2018-12-17T19:44:09.376Z,5.50
2018-12-17T19:46:38.179Z,5.50
2018-12-17T19:49:07.076Z,5.50
2018-12-17T19:51:35.940Z,5.50
2018-12-17T19:54:04.830Z,5.60
2018-12-17T19:56:33.796Z,5.60
2018-12-17T19:59:02.678Z,5.60
2018-12-17T20:01:31.724Z,5.60
2018-12-17T20:04:00.632Z,5.70
2018-12-17T20:06:29.438Z,5.70
2018-12-17T20:08:58.309Z,5.70
2018-12-17T20:11:27.177Z,5.70
2018-12-17T20:13:56.056Z,5.80
2018-12-17T20:16:24.851Z,5.70
2018-12-17T20:18:53.757Z,5.70
2018-12-17T20:21:22.634Z,5.70
2018-12-17T20:23:51.397Z,5.70
2018-12-17T20:26:20.229Z,5.70
2018-12-17T20:28:49.101Z,5.60
2018-12-17T20:31:17.975Z,5.60
2018-12-17T20:33:46.825Z,5.60
2018-12-17T20:36:15.739Z,5.60
2018-12-17T20:38:44.536Z,5.50
2018-12-17T20:41:13.483Z,5.60
2018-12-17T20:43:42.307Z,5.60
2018-12-17T20:46:11.171Z,5.50
2018-12-17T20:48:39.979Z,5.50
2018-12-17T20:51:08.774Z,5.50
2018-12-17T20:53:37.591Z,5.40
2018-12-17T20:56:06.497Z,5.40
2018-12-17T20:58:35.293Z,5.30
2018-12-17T21:01:04.257Z,5.30
2018-12-17T21:03:33.083Z,5.20
2018-12-17T21:06:01.939Z,5.20
2018-12-17T21:08:30.729Z,5.10
2018-12-17T21:10:59.537Z,5.10
2018-12-17T21:13:29.123Z,5.10
2018-12-17T21:15:58.046Z,5.10
2018-12-17T21:18:26.865Z,5.00
2018-12-17T21:20:55.758Z,5.00
2018-12-17T21:23:25.537Z,4.90
2018-12-17T21:25:54.341Z,4.90
2018-12-17T21:28:23.173Z,4.80
2018-12-17T21:30:51.969Z,4.80
2018-12-17T21:33:20.858Z,4.70
2018-12-17T21:35:49.751Z,4.70
2018-12-17T21:38:18.610Z,4.60
2018-12-17T21:40:47.467Z,4.60
2018-12-17T21:43:16.258Z,4.50
2018-12-17T21:45:45.125Z,4.40
2018-12-17T21:48:14.183Z,4.40
2018-12-17T21:50:43.061Z,4.40
2018-12-17T21:53:11.925Z,4.40
2018-12-17T21:55:40.753Z,4.50
2018-12-17T21:58:10.444Z,4.50
2018-12-17T22:00:39.321Z,4.60
2018-12-17T22:03:13.251Z,4.70
2018-12-17T22:05:40.989Z,4.70
2018-12-17T22:08:09.868Z,4.80
2018-12-17T22:10:38.712Z,4.80
2018-12-17T22:13:07.606Z,4.80
2018-12-17T22:15:36.425Z,4.80
2018-12-17T22:18:05.369Z,4.90
2018-12-17T22:20:35.533Z,4.80
2018-12-17T22:23:04.691Z,4.80
2018-12-17T22:25:33.575Z,4.70
2018-12-17T22:28:02.393Z,4.70
2018-12-17T22:30:31.253Z,4.70
2018-12-17T22:33:00.100Z,4.60
2018-12-17T22:35:28.999Z,4.60
2018-12-17T22:37:59.763Z,4.50
2018-12-17T22:40:28.662Z,4.50
2018-12-17T22:42:57.569Z,4.40
2018-12-17T22:45:28.355Z,4.40
2018-12-17T22:47:58.950Z,4.30
2018-12-17T22:50:28.812Z,4.30
2018-12-17T22:52:58.790Z,4.20
2018-12-17T22:55:27.596Z,4.10
2018-12-17T22:57:56.408Z,4.00
2018-12-17T23:00:26.988Z,3.90
2018-12-17T23:02:57.833Z,3.80
2018-12-17T23:05:26.684Z,3.80
2018-12-17T23:07:55.539Z,3.80
2018-12-17T23:10:41.180Z,3.80
2018-12-17T23:13:21.423Z,3.80
2018-12-17T23:16:01.426Z,3.70
2018-12-17T23:18:29.316Z,3.60
2018-12-17T23:21:00.161Z,3.50
2018-12-17T23:23:30.929Z,3.40
2018-12-17T23:26:01.720Z,3.30
2018-12-17T23:28:32.094Z,3.30
2018-12-17T23:31:00.994Z,3.20
2018-12-17T23:33:32.806Z,3.20
2018-12-17T23:36:00.798Z,3.10
2018-12-17T23:38:29.754Z,3.10
2018-12-17T23:40:58.591Z,3.10
2018-12-17T23:43:27.648Z,3.20
2018-12-17T23:45:56.452Z,3.20
2018-12-17T23:48:25.247Z,3.20
2018-12-17T23:50:54.109Z,3.20
2018-12-17T23:53:22.932Z,3.30
2018-12-17T23:55:51.751Z,3.30
2018-12-17T23:58:20.562Z,3.40
